sensor_id;sensor_type;location;lat;lon;timestamp;temperature;humidity
20815;DHT22;10568;48.176;16.316;2022-11-15T00:00:49;7.00;99.90
20815;DHT22;10568;48.176;16.316;2022-11-15T00:03:18;7.00;99.90
20815;DHT22;10568;48.176;16.316;2022-11-15T00:05:44;7.00;99.90
20815;DHT22;10568;48.176;16.316;2022-11-15T00:08:10;7.10;99.90
20815;DHT22;10568;48.176;16.316;2022-11-15T00:10:37;7.10;99.90
20815;DHT22;10568;48.176;16.316;2022-11-15T00:13:07;7.10;99.90
20815;DHT22;10568;48.176;16.316;2022-11-15T00:15:35;7.00;99.90
20815;DHT22;10568;48.176;16.316;2022-11-15T00:18:02;7.10;99.90
20815;DHT22;10568;48.176;16.316;2022-11-15T00:20:28;7.10;99.90
20815;DHT22;10568;48.176;16.316;2022-11-15T00:22:53;7.10;99.90
20815;DHT22;10568;48.176;16.316;2022-11-15T00:25:19;7.10;99.90
20815;DHT22;10568;48.176;16.316;2022-11-15T00:27:45;7.10;99.90
20815;DHT22;10568;48.176;16.316;2022-11-15T00:30:11;7.10;99.90
20815;DHT22;10568;48.176;16.316;2022-11-15T00:32:37;7.10;99.90
20815;DHT22;10568;48.176;16.316;2022-11-15T00:35:03;7.10;99.90
20815;DHT22;10568;48.176;16.316;2022-11-15T00:37:29;7.10;99.90
20815;DHT22;10568;48.176;16.316;2022-11-15T00:39:55;7.10;99.90
20815;DHT22;10568;48.176;16.316;2022-11-15T00:42:21;7.10;99.90
20815;DHT22;10568;48.176;16.316;2022-11-15T00:44:46;7.10;99.90
20815;DHT22;10568;48.176;16.316;2022-11-15T00:47:13;7.10;99.90
20815;DHT22;10568;48.176;16.316;2022-11-15T00:49:39;7.20;99.90
20815;DHT22;10568;48.176;16.316;2022-11-15T00:52:04;7.20;99.90
20815;DHT22;10568;48.176;16.316;2022-11-15T00:54:30;7.10;99.90
20815;DHT22;10568;48.176;16.316;2022-11-15T00:56:56;7.20;99.90
20815;DHT22;10568;48.176;16.316;2022-11-15T00:59:21;7.20;99.90
20815;DHT22;10568;48.176;16.316;2022-11-15T01:01:47;7.20;99.90
20815;DHT22;10568;48.176;16.316;2022-11-15T01:04:13;7.20;99.90
20815;DHT22;10568;48.176;16.316;2022-11-15T01:06:39;7.20;99.90
20815;DHT22;10568;48.176;16.316;2022-11-15T01:09:05;7.20;99.90
20815;DHT22;10568;48.176;16.316;2022-11-15T01:11:30;7.20;99.90
20815;DHT22;10568;48.176;16.316;2022-11-15T01:13:56;7.30;99.90
20815;DHT22;10568;48.176;16.316;2022-11-15T01:16:22;7.30;99.90
20815;DHT22;10568;48.176;16.316;2022-11-15T01:18:47;7.30;99.90
20815;DHT22;10568;48.176;16.316;2022-11-15T01:21:16;7.20;99.90
20815;DHT22;10568;48.176;16.316;2022-11-15T01:23:42;7.20;99.90
20815;DHT22;10568;48.176;16.316;2022-11-15T01:26:11;7.20;99.90
20815;DHT22;10568;48.176;16.316;2022-11-15T01:28:38;7.20;99.90
20815;DHT22;10568;48.176;16.316;2022-11-15T01:31:13;7.20;99.90
20815;DHT22;10568;48.176;16.316;2022-11-15T01:33:38;7.20;99.90
20815;DHT22;10568;48.176;16.316;2022-11-15T01:36:06;7.20;99.90
20815;DHT22;10568;48.176;16.316;2022-11-15T01:38:32;7.20;99.90
20815;DHT22;10568;48.176;16.316;2022-11-15T01:40:57;7.30;99.90
20815;DHT22;10568;48.176;16.316;2022-11-15T01:43:25;7.20;99.90
20815;DHT22;10568;48.176;16.316;2022-11-15T01:48:34;7.20;99.90
20815;DHT22;10568;48.176;16.316;2022-11-15T01:51:02;7.20;99.90
20815;DHT22;10568;48.176;16.316;2022-11-15T01:53:30;7.20;99.90
20815;DHT22;10568;48.176;16.316;2022-11-15T01:55:58;7.10;99.90
20815;DHT22;10568;48.176;16.316;2022-11-15T01:58:24;7.10;99.90
20815;DHT22;10568;48.176;16.316;2022-11-15T02:00:50;7.20;99.90
20815;DHT22;10568;48.176;16.316;2022-11-15T02:03:17;7.20;99.90
20815;DHT22;10568;48.176;16.316;2022-11-15T02:05:43;7.20;99.90
20815;DHT22;10568;48.176;16.316;2022-11-15T02:08:10;7.20;99.90
20815;DHT22;10568;48.176;16.316;2022-11-15T02:10:46;7.20;99.90
20815;DHT22;10568;48.176;16.316;2022-11-15T02:13:15;7.20;99.90
20815;DHT22;10568;48.176;16.316;2022-11-15T02:18:48;7.30;99.90
20815;DHT22;10568;48.176;16.316;2022-11-15T02:21:27;7.20;99.90
20815;DHT22;10568;48.176;16.316;2022-11-15T02:32:48;7.20;99.90
20815;DHT22;10568;48.176;16.316;2022-11-15T02:40:33;7.30;99.90
20815;DHT22;10568;48.176;16.316;2022-11-15T02:43:09;7.20;99.90
20815;DHT22;10568;48.176;16.316;2022-11-15T02:46:02;7.20;99.90
20815;DHT22;10568;48.176;16.316;2022-11-15T02:48:30;7.30;99.90
20815;DHT22;10568;48.176;16.316;2022-11-15T02:50:58;7.20;99.90
20815;DHT22;10568;48.176;16.316;2022-11-15T02:53:25;7.20;99.90
20815;DHT22;10568;48.176;16.316;2022-11-15T02:55:51;7.30;99.90
20815;DHT22;10568;48.176;16.316;2022-11-15T03:01:32;7.30;99.90
20815;DHT22;10568;48.176;16.316;2022-11-15T03:07:03;7.30;99.90
20815;DHT22;10568;48.176;16.316;2022-11-15T03:09:39;7.30;99.90
20815;DHT22;10568;48.176;16.316;2022-11-15T03:12:16;7.30;99.90
20815;DHT22;10568;48.176;16.316;2022-11-15T03:14:54;7.30;99.90
20815;DHT22;10568;48.176;16.316;2022-11-15T03:17:33;7.30;99.90
20815;DHT22;10568;48.176;16.316;2022-11-15T03:20:03;7.20;99.90
20815;DHT22;10568;48.176;16.316;2022-11-15T03:22:33;7.20;99.90
20815;DHT22;10568;48.176;16.316;2022-11-15T03:25:04;7.20;99.90
20815;DHT22;10568;48.176;16.316;2022-11-15T03:27:35;7.20;99.90
20815;DHT22;10568;48.176;16.316;2022-11-15T03:30:06;7.30;99.90
20815;DHT22;10568;48.176;16.316;2022-11-15T03:32:39;7.30;99.90
20815;DHT22;10568;48.176;16.316;2022-11-15T03:35:29;7.30;99.90
20815;DHT22;10568;48.176;16.316;2022-11-15T03:43:44;7.30;99.90
20815;DHT22;10568;48.176;16.316;2022-11-15T03:47:03;7.30;99.90
20815;DHT22;10568;48.176;16.316;2022-11-15T03:49:33;7.30;99.90
20815;DHT22;10568;48.176;16.316;2022-11-15T03:52:00;7.30;99.90
20815;DHT22;10568;48.176;16.316;2022-11-15T03:54:26;7.30;99.90
20815;DHT22;10568;48.176;16.316;2022-11-15T03:56:51;7.30;99.90
20815;DHT22;10568;48.176;16.316;2022-11-15T03:59:17;7.20;99.90
20815;DHT22;10568;48.176;16.316;2022-11-15T04:01:43;7.20;99.90
20815;DHT22;10568;48.176;16.316;2022-11-15T04:04:08;7.30;99.90
20815;DHT22;10568;48.176;16.316;2022-11-15T04:06:34;7.30;99.90
20815;DHT22;10568;48.176;16.316;2022-11-15T04:09:00;7.30;99.90
20815;DHT22;10568;48.176;16.316;2022-11-15T04:11:25;7.30;99.90
20815;DHT22;10568;48.176;16.316;2022-11-15T04:13:51;7.30;99.90
20815;DHT22;10568;48.176;16.316;2022-11-15T04:16:17;7.30;99.90
20815;DHT22;10568;48.176;16.316;2022-11-15T04:18:42;7.20;99.90
20815;DHT22;10568;48.176;16.316;2022-11-15T04:21:08;7.30;99.90
20815;DHT22;10568;48.176;16.316;2022-11-15T04:23:52;7.30;99.90
20815;DHT22;10568;48.176;16.316;2022-11-15T04:26:20;7.30;99.90
20815;DHT22;10568;48.176;16.316;2022-11-15T04:28:47;7.30;99.90
20815;DHT22;10568;48.176;16.316;2022-11-15T04:31:31;7.30;99.90
20815;DHT22;10568;48.176;16.316;2022-11-15T04:33:57;7.30;99.90
20815;DHT22;10568;48.176;16.316;2022-11-15T04:36:23;7.30;99.90
20815;DHT22;10568;48.176;16.316;2022-11-15T04:39:08;7.40;99.90
20815;DHT22;10568;48.176;16.316;2022-11-15T04:41:34;7.30;99.90
20815;DHT22;10568;48.176;16.316;2022-11-15T04:43:59;7.30;99.90
20815;DHT22;10568;48.176;16.316;2022-11-15T04:46:26;7.40;99.90
20815;DHT22;10568;48.176;16.316;2022-11-15T04:48:52;7.40;99.90
20815;DHT22;10568;48.176;16.316;2022-11-15T04:51:18;7.40;99.90
20815;DHT22;10568;48.176;16.316;2022-11-15T04:53:44;7.40;99.90
20815;DHT22;10568;48.176;16.316;2022-11-15T04:56:10;7.40;99.90
20815;DHT22;10568;48.176;16.316;2022-11-15T04:58:36;7.40;99.90
20815;DHT22;10568;48.176;16.316;2022-11-15T05:01:11;7.40;99.90
20815;DHT22;10568;48.176;16.316;2022-11-15T05:03:39;7.40;99.90
20815;DHT22;10568;48.176;16.316;2022-11-15T05:06:23;7.40;99.90
20815;DHT22;10568;48.176;16.316;2022-11-15T05:08:49;7.40;99.90
20815;DHT22;10568;48.176;16.316;2022-11-15T05:11:14;7.40;99.90
20815;DHT22;10568;48.176;16.316;2022-11-15T05:13:40;7.40;99.90
20815;DHT22;10568;48.176;16.316;2022-11-15T05:16:06;7.40;99.90
20815;DHT22;10568;48.176;16.316;2022-11-15T05:18:32;7.40;99.90
20815;DHT22;10568;48.176;16.316;2022-11-15T05:21:06;7.40;99.90
20815;DHT22;10568;48.176;16.316;2022-11-15T05:23:32;7.40;99.90
20815;DHT22;10568;48.176;16.316;2022-11-15T05:26:02;7.40;99.90
20815;DHT22;10568;48.176;16.316;2022-11-15T05:31:39;7.50;99.90
20815;DHT22;10568;48.176;16.316;2022-11-15T05:34:06;7.40;99.90
20815;DHT22;10568;48.176;16.316;2022-11-15T05:36:41;7.40;99.90
20815;DHT22;10568;48.176;16.316;2022-11-15T05:39:08;7.40;99.90
20815;DHT22;10568;48.176;16.316;2022-11-15T05:41:39;7.40;99.90
20815;DHT22;10568;48.176;16.316;2022-11-15T05:44:07;7.40;99.90
20815;DHT22;10568;48.176;16.316;2022-11-15T05:46:37;7.40;99.90
20815;DHT22;10568;48.176;16.316;2022-11-15T05:49:05;7.40;99.90
20815;DHT22;10568;48.176;16.316;2022-11-15T05:51:32;7.40;99.90
20815;DHT22;10568;48.176;16.316;2022-11-15T05:53:58;7.40;99.90
20815;DHT22;10568;48.176;16.316;2022-11-15T05:56:25;7.50;99.90
20815;DHT22;10568;48.176;16.316;2022-11-15T05:58:53;7.40;99.90
20815;DHT22;10568;48.176;16.316;2022-11-15T06:01:20;7.50;99.90
20815;DHT22;10568;48.176;16.316;2022-11-15T06:03:46;7.50;99.90
20815;DHT22;10568;48.176;16.316;2022-11-15T06:06:11;7.40;99.90
20815;DHT22;10568;48.176;16.316;2022-11-15T06:08:37;7.50;99.90
20815;DHT22;10568;48.176;16.316;2022-11-15T06:11:06;7.50;99.90
20815;DHT22;10568;48.176;16.316;2022-11-15T06:13:33;7.50;99.90
20815;DHT22;10568;48.176;16.316;2022-11-15T06:15:59;7.50;99.90
20815;DHT22;10568;48.176;16.316;2022-11-15T06:18:25;7.50;99.90
20815;DHT22;10568;48.176;16.316;2022-11-15T06:20:51;7.50;99.90
20815;DHT22;10568;48.176;16.316;2022-11-15T06:23:17;7.50;99.90
20815;DHT22;10568;48.176;16.316;2022-11-15T06:25:42;7.50;99.90
20815;DHT22;10568;48.176;16.316;2022-11-15T06:31:17;7.50;99.90
20815;DHT22;10568;48.176;16.316;2022-11-15T06:33:43;7.50;99.90
20815;DHT22;10568;48.176;16.316;2022-11-15T06:36:11;7.50;99.90
20815;DHT22;10568;48.176;16.316;2022-11-15T06:38:41;7.50;99.90
20815;DHT22;10568;48.176;16.316;2022-11-15T06:41:09;7.50;99.90
20815;DHT22;10568;48.176;16.316;2022-11-15T06:43:35;7.40;99.90
20815;DHT22;10568;48.176;16.316;2022-11-15T06:46:03;7.50;99.90
20815;DHT22;10568;48.176;16.316;2022-11-15T06:48:30;7.50;99.90
20815;DHT22;10568;48.176;16.316;2022-11-15T06:50:58;7.50;99.90
20815;DHT22;10568;48.176;16.316;2022-11-15T06:53:24;7.50;99.90
20815;DHT22;10568;48.176;16.316;2022-11-15T06:55:50;7.50;99.90
20815;DHT22;10568;48.176;16.316;2022-11-15T06:58:16;7.50;99.90
20815;DHT22;10568;48.176;16.316;2022-11-15T07:00:42;7.50;99.90
20815;DHT22;10568;48.176;16.316;2022-11-15T07:03:08;7.50;99.90
20815;DHT22;10568;48.176;16.316;2022-11-15T07:05:34;7.50;99.90
20815;DHT22;10568;48.176;16.316;2022-11-15T07:08:00;7.60;99.90
20815;DHT22;10568;48.176;16.316;2022-11-15T07:10:27;7.60;99.90
20815;DHT22;10568;48.176;16.316;2022-11-15T07:12:54;7.50;99.90
20815;DHT22;10568;48.176;16.316;2022-11-15T07:15:23;7.60;99.90
20815;DHT22;10568;48.176;16.316;2022-11-15T07:17:50;7.60;99.90
20815;DHT22;10568;48.176;16.316;2022-11-15T07:20:16;7.60;99.90
20815;DHT22;10568;48.176;16.316;2022-11-15T07:22:42;7.60;99.90
20815;DHT22;10568;48.176;16.316;2022-11-15T07:25:09;7.60;99.90
20815;DHT22;10568;48.176;16.316;2022-11-15T07:27:34;7.60;99.90
20815;DHT22;10568;48.176;16.316;2022-11-15T07:30:00;7.60;99.90
20815;DHT22;10568;48.176;16.316;2022-11-15T07:32:26;7.70;99.90
20815;DHT22;10568;48.176;16.316;2022-11-15T07:34:52;7.70;99.90
20815;DHT22;10568;48.176;16.316;2022-11-15T07:37:18;7.70;99.90
20815;DHT22;10568;48.176;16.316;2022-11-15T07:39:44;7.70;99.90
20815;DHT22;10568;48.176;16.316;2022-11-15T07:42:10;7.70;99.90
20815;DHT22;10568;48.176;16.316;2022-11-15T07:44:54;7.70;99.90
20815;DHT22;10568;48.176;16.316;2022-11-15T07:47:20;7.80;99.90
20815;DHT22;10568;48.176;16.316;2022-11-15T07:49:46;7.80;99.90
20815;DHT22;10568;48.176;16.316;2022-11-15T07:52:12;7.80;99.90
20815;DHT22;10568;48.176;16.316;2022-11-15T07:54:38;7.80;99.90
20815;DHT22;10568;48.176;16.316;2022-11-15T07:57:05;7.80;99.90
20815;DHT22;10568;48.176;16.316;2022-11-15T07:59:32;7.80;99.90
20815;DHT22;10568;48.176;16.316;2022-11-15T08:01:58;7.80;99.90
20815;DHT22;10568;48.176;16.316;2022-11-15T08:04:24;7.80;99.90
20815;DHT22;10568;48.176;16.316;2022-11-15T08:06:50;7.80;99.90
20815;DHT22;10568;48.176;16.316;2022-11-15T08:09:15;7.90;99.90
20815;DHT22;10568;48.176;16.316;2022-11-15T08:11:41;7.90;99.90
20815;DHT22;10568;48.176;16.316;2022-11-15T08:14:07;7.90;99.90
20815;DHT22;10568;48.176;16.316;2022-11-15T08:16:33;7.90;99.90
20815;DHT22;10568;48.176;16.316;2022-11-15T08:18:58;8.00;99.90
20815;DHT22;10568;48.176;16.316;2022-11-15T08:21:24;8.00;99.90
20815;DHT22;10568;48.176;16.316;2022-11-15T08:23:50;8.00;99.90
20815;DHT22;10568;48.176;16.316;2022-11-15T08:26:16;8.00;99.90
20815;DHT22;10568;48.176;16.316;2022-11-15T08:28:42;8.00;99.90
20815;DHT22;10568;48.176;16.316;2022-11-15T08:31:16;8.10;99.90
20815;DHT22;10568;48.176;16.316;2022-11-15T08:33:43;8.10;99.90
20815;DHT22;10568;48.176;16.316;2022-11-15T08:36:13;8.10;99.90
20815;DHT22;10568;48.176;16.316;2022-11-15T08:38:40;8.10;99.90
20815;DHT22;10568;48.176;16.316;2022-11-15T08:41:05;8.00;99.90
20815;DHT22;10568;48.176;16.316;2022-11-15T08:43:31;8.10;99.90
20815;DHT22;10568;48.176;16.316;2022-11-15T08:45:58;8.10;99.90
20815;DHT22;10568;48.176;16.316;2022-11-15T08:48:24;8.10;99.90
20815;DHT22;10568;48.176;16.316;2022-11-15T08:50:54;8.10;99.90
20815;DHT22;10568;48.176;16.316;2022-11-15T08:53:20;8.10;99.90
20815;DHT22;10568;48.176;16.316;2022-11-15T08:55:46;8.00;99.90
20815;DHT22;10568;48.176;16.316;2022-11-15T08:58:11;8.10;99.90
20815;DHT22;10568;48.176;16.316;2022-11-15T09:00:37;8.10;99.90
20815;DHT22;10568;48.176;16.316;2022-11-15T09:03:07;8.10;99.90
20815;DHT22;10568;48.176;16.316;2022-11-15T09:05:36;8.10;99.90
20815;DHT22;10568;48.176;16.316;2022-11-15T09:08:03;8.10;99.90
20815;DHT22;10568;48.176;16.316;2022-11-15T09:10:29;8.10;99.90
20815;DHT22;10568;48.176;16.316;2022-11-15T09:12:57;8.10;99.90
20815;DHT22;10568;48.176;16.316;2022-11-15T09:15:23;8.10;99.90
20815;DHT22;10568;48.176;16.316;2022-11-15T09:17:48;8.10;99.90
20815;DHT22;10568;48.176;16.316;2022-11-15T09:20:14;8.10;99.90
20815;DHT22;10568;48.176;16.316;2022-11-15T09:22:40;8.10;99.90
20815;DHT22;10568;48.176;16.316;2022-11-15T09:25:06;8.10;99.90
20815;DHT22;10568;48.176;16.316;2022-11-15T09:27:32;8.10;99.90
20815;DHT22;10568;48.176;16.316;2022-11-15T09:29:58;8.20;99.90
20815;DHT22;10568;48.176;16.316;2022-11-15T09:32:28;8.10;99.90
20815;DHT22;10568;48.176;16.316;2022-11-15T09:34:55;8.10;99.90
20815;DHT22;10568;48.176;16.316;2022-11-15T09:37:21;8.10;99.90
20815;DHT22;10568;48.176;16.316;2022-11-15T09:39:47;8.20;99.90
20815;DHT22;10568;48.176;16.316;2022-11-15T09:42:35;8.20;99.90
20815;DHT22;10568;48.176;16.316;2022-11-15T09:45:13;8.20;99.90
20815;DHT22;10568;48.176;16.316;2022-11-15T09:51:03;8.30;99.90
20815;DHT22;10568;48.176;16.316;2022-11-15T09:53:49;8.40;99.90
20815;DHT22;10568;48.176;16.316;2022-11-15T09:56:28;8.40;99.90
20815;DHT22;10568;48.176;16.316;2022-11-15T10:04:39;8.40;99.90
20815;DHT22;10568;48.176;16.316;2022-11-15T10:07:24;8.50;99.90
20815;DHT22;10568;48.176;16.316;2022-11-15T10:10:38;8.40;99.90
20815;DHT22;10568;48.176;16.316;2022-11-15T10:12:47;8.40;99.90
20815;DHT22;10568;48.176;16.316;2022-11-15T10:15:16;8.50;99.90
20815;DHT22;10568;48.176;16.316;2022-11-15T10:20:27;8.40;99.90
20815;DHT22;10568;48.176;16.316;2022-11-15T10:23:01;8.50;99.90
20815;DHT22;10568;48.176;16.316;2022-11-15T10:25:34;8.40;99.90
20815;DHT22;10568;48.176;16.316;2022-11-15T10:28:01;8.50;99.90
20815;DHT22;10568;48.176;16.316;2022-11-15T10:30:44;8.50;99.90
20815;DHT22;10568;48.176;16.316;2022-11-15T10:33:38;8.60;99.90
20815;DHT22;10568;48.176;16.316;2022-11-15T10:41:14;8.60;99.90
20815;DHT22;10568;48.176;16.316;2022-11-15T10:43:41;8.60;99.90
20815;DHT22;10568;48.176;16.316;2022-11-15T10:46:20;8.70;99.90
20815;DHT22;10568;48.176;16.316;2022-11-15T10:48:46;8.70;99.90
20815;DHT22;10568;48.176;16.316;2022-11-15T10:51:27;8.70;99.90
20815;DHT22;10568;48.176;16.316;2022-11-15T10:53:56;8.70;99.90
20815;DHT22;10568;48.176;16.316;2022-11-15T10:56:25;8.80;99.90
20815;DHT22;10568;48.176;16.316;2022-11-15T10:58:54;8.80;99.90
20815;DHT22;10568;48.176;16.316;2022-11-15T11:01:26;8.80;99.90
20815;DHT22;10568;48.176;16.316;2022-11-15T11:04:04;8.80;99.90
20815;DHT22;10568;48.176;16.316;2022-11-15T11:06:55;8.70;99.90
20815;DHT22;10568;48.176;16.316;2022-11-15T11:09:37;8.70;99.90
20815;DHT22;10568;48.176;16.316;2022-11-15T11:12:05;8.80;99.90
20815;DHT22;10568;48.176;16.316;2022-11-15T11:14:33;8.80;99.90
20815;DHT22;10568;48.176;16.316;2022-11-15T11:20:29;8.90;99.90
20815;DHT22;10568;48.176;16.316;2022-11-15T11:29:41;8.90;99.90
20815;DHT22;10568;48.176;16.316;2022-11-15T11:41:20;8.90;99.90
20815;DHT22;10568;48.176;16.316;2022-11-15T11:44:43;8.90;99.90
20815;DHT22;10568;48.176;16.316;2022-11-15T11:49:23;8.90;99.90
20815;DHT22;10568;48.176;16.316;2022-11-15T11:51:52;8.80;99.90
20815;DHT22;10568;48.176;16.316;2022-11-15T11:54:21;8.80;99.90
20815;DHT22;10568;48.176;16.316;2022-11-15T11:56:48;8.90;99.90
20815;DHT22;10568;48.176;16.316;2022-11-15T12:01:51;8.90;99.90
20815;DHT22;10568;48.176;16.316;2022-11-15T12:04:23;8.90;99.90
20815;DHT22;10568;48.176;16.316;2022-11-15T12:07:01;8.90;99.90
20815;DHT22;10568;48.176;16.316;2022-11-15T12:09:39;9.00;99.90
20815;DHT22;10568;48.176;16.316;2022-11-15T12:14:51;9.00;99.90
20815;DHT22;10568;48.176;16.316;2022-11-15T12:17:24;9.00;99.90
20815;DHT22;10568;48.176;16.316;2022-11-15T12:19:55;9.00;99.90
20815;DHT22;10568;48.176;16.316;2022-11-15T12:25:27;9.10;99.90
20815;DHT22;10568;48.176;16.316;2022-11-15T12:28:03;9.10;99.90
20815;DHT22;10568;48.176;16.316;2022-11-15T12:30:56;9.10;99.90
20815;DHT22;10568;48.176;16.316;2022-11-15T12:33:42;9.10;99.90
20815;DHT22;10568;48.176;16.316;2022-11-15T12:38:50;9.10;99.90
20815;DHT22;10568;48.176;16.316;2022-11-15T12:41:18;9.10;99.90
20815;DHT22;10568;48.176;16.316;2022-11-15T12:43:46;9.10;99.90
20815;DHT22;10568;48.176;16.316;2022-11-15T12:46:24;9.00;99.90
20815;DHT22;10568;48.176;16.316;2022-11-15T12:59:55;9.00;99.90
20815;DHT22;10568;48.176;16.316;2022-11-15T13:04:55;9.00;99.90
20815;DHT22;10568;48.176;16.316;2022-11-15T13:17:54;9.00;99.90
20815;DHT22;10568;48.176;16.316;2022-11-15T13:20:27;9.00;99.90
20815;DHT22;10568;48.176;16.316;2022-11-15T13:23:07;9.00;99.90
20815;DHT22;10568;48.176;16.316;2022-11-15T13:25:56;9.00;99.90
20815;DHT22;10568;48.176;16.316;2022-11-15T13:31:29;9.00;99.90
20815;DHT22;10568;48.176;16.316;2022-11-15T13:34:02;9.00;99.90
20815;DHT22;10568;48.176;16.316;2022-11-15T13:36:32;9.00;99.90
20815;DHT22;10568;48.176;16.316;2022-11-15T13:39:05;9.00;99.90
20815;DHT22;10568;48.176;16.316;2022-11-15T13:41:36;9.00;99.90
20815;DHT22;10568;48.176;16.316;2022-11-15T13:44:23;9.00;99.90
20815;DHT22;10568;48.176;16.316;2022-11-15T13:47:01;9.00;99.90
20815;DHT22;10568;48.176;16.316;2022-11-15T13:49:33;9.00;99.90
20815;DHT22;10568;48.176;16.316;2022-11-15T13:52:02;9.00;99.90
20815;DHT22;10568;48.176;16.316;2022-11-15T13:54:34;9.00;99.90
20815;DHT22;10568;48.176;16.316;2022-11-15T13:57:21;9.00;99.90
20815;DHT22;10568;48.176;16.316;2022-11-15T13:59:49;9.00;99.90
20815;DHT22;10568;48.176;16.316;2022-11-15T14:02:21;9.00;99.90
20815;DHT22;10568;48.176;16.316;2022-11-15T14:05:12;9.00;99.90
20815;DHT22;10568;48.176;16.316;2022-11-15T14:07:39;9.00;99.90
20815;DHT22;10568;48.176;16.316;2022-11-15T14:10:26;9.00;99.90
20815;DHT22;10568;48.176;16.316;2022-11-15T14:12:53;9.00;99.90
20815;DHT22;10568;48.176;16.316;2022-11-15T14:15:34;9.00;99.90
20815;DHT22;10568;48.176;16.316;2022-11-15T14:18:01;8.90;99.90
20815;DHT22;10568;48.176;16.316;2022-11-15T14:20:30;8.90;99.90
20815;DHT22;10568;48.176;16.316;2022-11-15T14:22:59;8.90;99.90
20815;DHT22;10568;48.176;16.316;2022-11-15T14:25:30;8.90;99.90
20815;DHT22;10568;48.176;16.316;2022-11-15T14:28:28;8.90;99.90
20815;DHT22;10568;48.176;16.316;2022-11-15T14:30:57;8.90;99.90
20815;DHT22;10568;48.176;16.316;2022-11-15T14:35:55;8.90;99.90
20815;DHT22;10568;48.176;16.316;2022-11-15T14:38:23;8.90;99.90
20815;DHT22;10568;48.176;16.316;2022-11-15T14:40:49;8.90;99.90
20815;DHT22;10568;48.176;16.316;2022-11-15T14:43:15;8.90;99.90
20815;DHT22;10568;48.176;16.316;2022-11-15T14:45:41;8.90;99.90
20815;DHT22;10568;48.176;16.316;2022-11-15T14:48:07;8.90;99.90
20815;DHT22;10568;48.176;16.316;2022-11-15T14:50:34;9.00;99.90
20815;DHT22;10568;48.176;16.316;2022-11-15T14:53:00;8.90;99.90
20815;DHT22;10568;48.176;16.316;2022-11-15T14:57:54;8.90;99.90
20815;DHT22;10568;48.176;16.316;2022-11-15T15:00:20;8.90;99.90
20815;DHT22;10568;48.176;16.316;2022-11-15T15:02:47;8.90;99.90
20815;DHT22;10568;48.176;16.316;2022-11-15T15:07:43;9.00;99.90
20815;DHT22;10568;48.176;16.316;2022-11-15T15:10:09;9.00;99.90
20815;DHT22;10568;48.176;16.316;2022-11-15T15:12:35;9.00;99.90
20815;DHT22;10568;48.176;16.316;2022-11-15T15:15:01;9.00;99.90
20815;DHT22;10568;48.176;16.316;2022-11-15T15:17:27;8.90;99.90
20815;DHT22;10568;48.176;16.316;2022-11-15T15:19:52;8.90;99.90
20815;DHT22;10568;48.176;16.316;2022-11-15T15:22:19;9.00;99.90
20815;DHT22;10568;48.176;16.316;2022-11-15T15:24:48;9.00;99.90
20815;DHT22;10568;48.176;16.316;2022-11-15T15:27:13;9.00;99.90
20815;DHT22;10568;48.176;16.316;2022-11-15T15:29:39;9.00;99.90
20815;DHT22;10568;48.176;16.316;2022-11-15T15:32:06;9.00;99.90
20815;DHT22;10568;48.176;16.316;2022-11-15T15:34:32;9.00;99.90
20815;DHT22;10568;48.176;16.316;2022-11-15T15:39:34;9.00;99.90
20815;DHT22;10568;48.176;16.316;2022-11-15T15:41:59;9.00;99.90
20815;DHT22;10568;48.176;16.316;2022-11-15T15:44:25;9.00;99.90
20815;DHT22;10568;48.176;16.316;2022-11-15T15:46:51;9.00;99.90
20815;DHT22;10568;48.176;16.316;2022-11-15T15:49:16;9.00;99.90
20815;DHT22;10568;48.176;16.316;2022-11-15T15:51:42;9.00;99.90
20815;DHT22;10568;48.176;16.316;2022-11-15T15:54:09;8.90;99.90
20815;DHT22;10568;48.176;16.316;2022-11-15T15:56:34;9.00;99.90
20815;DHT22;10568;48.176;16.316;2022-11-15T15:59:00;9.00;99.90
20815;DHT22;10568;48.176;16.316;2022-11-15T16:01:26;9.00;99.90
20815;DHT22;10568;48.176;16.316;2022-11-15T16:03:51;9.00;99.90
20815;DHT22;10568;48.176;16.316;2022-11-15T16:06:34;9.00;99.90
20815;DHT22;10568;48.176;16.316;2022-11-15T16:09:01;9.00;99.90
20815;DHT22;10568;48.176;16.316;2022-11-15T16:11:27;9.00;99.90
20815;DHT22;10568;48.176;16.316;2022-11-15T16:13:53;9.10;99.90
20815;DHT22;10568;48.176;16.316;2022-11-15T16:16:19;9.00;99.90
20815;DHT22;10568;48.176;16.316;2022-11-15T16:18:45;9.00;99.90
20815;DHT22;10568;48.176;16.316;2022-11-15T16:21:11;9.00;99.90
20815;DHT22;10568;48.176;16.316;2022-11-15T16:23:37;9.00;99.90
20815;DHT22;10568;48.176;16.316;2022-11-15T16:28:47;9.00;99.90
20815;DHT22;10568;48.176;16.316;2022-11-15T16:31:13;8.90;99.90
20815;DHT22;10568;48.176;16.316;2022-11-15T16:33:40;9.00;99.90
20815;DHT22;10568;48.176;16.316;2022-11-15T16:36:19;8.90;99.90
20815;DHT22;10568;48.176;16.316;2022-11-15T16:38:45;8.90;99.90
20815;DHT22;10568;48.176;16.316;2022-11-15T16:41:11;8.90;99.90
20815;DHT22;10568;48.176;16.316;2022-11-15T16:43:37;8.90;99.90
20815;DHT22;10568;48.176;16.316;2022-11-15T16:46:20;8.90;99.90
20815;DHT22;10568;48.176;16.316;2022-11-15T16:48:47;8.90;99.90
20815;DHT22;10568;48.176;16.316;2022-11-15T16:51:14;8.90;99.90
20815;DHT22;10568;48.176;16.316;2022-11-15T16:53:40;8.90;99.90
20815;DHT22;10568;48.176;16.316;2022-11-15T16:58:42;8.90;99.90
20815;DHT22;10568;48.176;16.316;2022-11-15T17:01:18;8.90;99.90
20815;DHT22;10568;48.176;16.316;2022-11-15T17:03:45;8.90;99.90
20815;DHT22;10568;48.176;16.316;2022-11-15T17:06:12;8.90;99.90
20815;DHT22;10568;48.176;16.316;2022-11-15T17:08:40;8.90;99.90
20815;DHT22;10568;48.176;16.316;2022-11-15T17:11:07;8.90;99.90
20815;DHT22;10568;48.176;16.316;2022-11-15T17:13:33;8.90;99.90
20815;DHT22;10568;48.176;16.316;2022-11-15T17:16:04;8.90;99.90
20815;DHT22;10568;48.176;16.316;2022-11-15T17:18:30;8.90;99.90
20815;DHT22;10568;48.176;16.316;2022-11-15T17:20:55;8.90;99.90
20815;DHT22;10568;48.176;16.316;2022-11-15T17:23:21;8.90;99.90
20815;DHT22;10568;48.176;16.316;2022-11-15T17:25:47;8.80;99.90
20815;DHT22;10568;48.176;16.316;2022-11-15T17:28:22;8.90;99.90
20815;DHT22;10568;48.176;16.316;2022-11-15T17:30:48;8.90;99.90
20815;DHT22;10568;48.176;16.316;2022-11-15T17:33:16;8.90;99.90
20815;DHT22;10568;48.176;16.316;2022-11-15T17:35:42;8.90;99.90
20815;DHT22;10568;48.176;16.316;2022-11-15T17:38:08;8.90;99.90
20815;DHT22;10568;48.176;16.316;2022-11-15T17:40:34;8.90;99.90
20815;DHT22;10568;48.176;16.316;2022-11-15T17:42:59;8.90;99.90
20815;DHT22;10568;48.176;16.316;2022-11-15T17:45:39;8.90;99.90
20815;DHT22;10568;48.176;16.316;2022-11-15T17:48:06;8.90;99.90
20815;DHT22;10568;48.176;16.316;2022-11-15T17:50:31;8.90;99.90
20815;DHT22;10568;48.176;16.316;2022-11-15T17:52:58;8.90;99.90